Time;durP1;ratioP1;P1;durP2;ratioP2;P2;SDS_P1;SDS_P2;PMS_P1;PMS_P2;Temp;Humidity;BMP_temperature;BMP_pressure;BME280_temperature;BME280_humidity;BME280_pressure;Samples;Min_cycle;Max_cycle;Signal;HPM_P1;HPM_P2
2023/01/14 00:00:23;;;;;;;5.15;1.33;;;;;;;;;;4951882;29;20134;-77
2023/01/14 00:02:49;;;;;;;5.47;0.75;;;;;;;;;;4965176;28;20023;-76
2023/01/14 00:05:16;;;;;;;4.85;2.05;;;;;;;;;;4950656;29;20097;-76
2023/01/14 00:07:42;;;;;;;2.35;0.88;;;;;;;;;;4967195;28;20065;-76
2023/01/14 00:10:08;;;;;;;7.38;1.00;;;;;;;;;;4952505;29;20031;-79
2023/01/14 00:12:34;;;;;;;6.18;1.60;;;;;;;;;;4951421;29;20035;-78
2023/01/14 00:15:00;;;;;;;1.20;1.15;;;;;;;;;;4949413;29;20086;-78
2023/01/14 00:17:26;;;;;;;1.83;1.25;;;;;;;;;;4965372;28;20251;-78
2023/01/14 00:19:52;;;;;;;3.47;1.30;;;;;;;;;;4950203;29;20637;-76
2023/01/14 00:22:18;;;;;;;4.78;1.40;;;;;;;;;;4949405;29;20031;-76
2023/01/14 00:24:44;;;;;;;5.40;0.70;;;;;;;;;;4949270;29;20043;-76
2023/01/14 00:27:11;;;;;;;2.65;1.60;;;;;;;;;;4950870;29;20155;-76
2023/01/14 00:29:37;;;;;;;5.40;1.42;;;;;;;;;;4949628;28;20423;-76
2023/01/14 00:32:04;;;;;;;4.45;0.73;;;;;;;;;;4949716;29;20110;-76
2023/01/14 00:34:31;;;;;;;2.40;1.00;;;;;;;;;;4950260;29;20055;-76
2023/01/14 00:36:57;;;;;;;5.70;1.75;;;;;;;;;;4966369;28;20027;-78
2023/01/14 00:39:24;;;;;;;11.95;2.15;;;;;;;;;;4966154;28;20031;-76
2023/01/14 00:41:50;;;;;;;2.65;0.90;;;;;;;;;;4951637;29;20042;-77
2023/01/14 00:44:17;;;;;;;4.88;2.00;;;;;;;;;;4950470;29;20030;-77
2023/01/14 00:46:43;;;;;;;5.28;1.02;;;;;;;;;;4950762;28;20450;-76
2023/01/14 00:49:18;;;;;;;11.77;2.13;;;6.30;99.90;;;;;;4965476;28;20023;-77
2023/01/14 00:51:44;;;;;;;2.10;0.85;;;;;;;;;;4950725;28;20039;-76
2023/01/14 00:54:10;;;;;;;4.57;0.98;;;;;;;;;;4949135;29;20473;-78
2023/01/14 00:56:36;;;;;;;5.95;1.85;;;;;;;;;;4950767;29;20061;-76
2023/01/14 00:59:02;;;;;;;6.57;1.45;;;;;;;;;;4950695;29;20098;-77
2023/01/14 01:01:28;;;;;;;1.48;1.27;;;;;;;;;;4950700;28;20118;-78
2023/01/14 01:03:56;;;;;;;1.88;1.30;;;;;;;;;;4951742;29;20027;-77
2023/01/14 01:06:24;;;;;;;11.80;1.48;;;6.40;99.90;;;;;;4953752;29;20043;-78
2023/01/14 01:08:50;;;;;;;4.13;1.40;;;;;;;;;;4953012;28;20019;-78
2023/01/14 01:11:18;;;;;;;7.07;0.85;;;6.40;99.90;;;;;;4951108;29;20117;-77
2023/01/14 01:13:44;;;;;;;4.05;1.02;;;;;;;;;;4950927;29;20023;-76
2023/01/14 01:16:13;;;;;;;5.45;2.15;;;6.30;99.90;;;;;;4949155;29;20023;-76
2023/01/14 01:18:39;;;;;;;3.97;1.20;;;;;;;;;;4952837;29;20436;-75
2023/01/14 01:21:14;;;;;;;4.93;1.63;;;;;;;;;;4950295;29;20035;-75
2023/01/14 01:23:41;;;;;;;1.83;1.20;;;;;;;;;;4952171;28;20031;-76
2023/01/14 01:26:08;;;;;;;3.80;0.85;;;;;;;;;;4951830;29;20113;-76
2023/01/14 01:28:34;;;;;;;8.05;1.25;;;;;;;;;;4951094;29;20391;-76
2023/01/14 01:31:01;;;;;;;4.60;2.17;;;;;;;;;;4951162;29;20057;-76
2023/01/14 01:33:27;;;;;;;6.30;1.13;;;;;;;;;;4949208;29;20027;-76
2023/01/14 01:36:16;;;;;;;8.65;2.90;;;6.20;99.90;;;;;;4948422;29;20500;-78
2023/01/14 01:38:43;;;;;;;2.90;1.92;;;;;;;;;;4950281;28;20026;-76
2023/01/14 01:41:14;;;;;;;5.60;1.77;;;;;;;;;;4949861;29;20094;-76
2023/01/14 01:44:10;;;;;;;7.03;1.25;;;6.20;99.90;;;;;;4950644;28;20592;-77
2023/01/14 01:46:37;;;;;;;1.20;0.85;;;;;;;;;;4949287;29;20039;-77
2023/01/14 01:49:11;;;;;;;2.83;1.10;;;;;;;;;;4950282;29;20058;-76
2023/01/14 01:51:46;;;;;;;3.85;1.33;;;6.10;99.90;;;;;;4966359;28;20050;-76
2023/01/14 01:54:13;;;;;;;10.18;2.70;;;;;;;;;;4952782;28;20031;-76
2023/01/14 01:56:39;;;;;;;12.90;1.38;;;;;;;;;;4966032;28;20579;-77
2023/01/14 01:59:07;;;;;;;1.58;0.93;;;;;;;;;;4952120;28;20250;-75
2023/01/14 02:01:33;;;;;;;5.85;1.25;;;;;;;;;;4964773;28;20035;-76
2023/01/14 02:03:59;;;;;;;4.28;1.27;;;;;;;;;;4965478;28;20043;-76
2023/01/14 02:06:26;;;;;;;4.07;1.58;;;;;;;;;;4950974;29;20039;-78
2023/01/14 02:08:53;;;;;;;6.53;1.48;;;;;;;;;;4952223;29;20078;-78
2023/01/14 02:11:22;;;;;;;1.23;0.93;;;;;;;;;;4951890;29;20081;-78
2023/01/14 02:14:25;;;;;;;5.82;1.85;;;5.80;99.90;;;;;;4950000;28;20074;-79
2023/01/14 02:17:11;;;;;;;1.27;1.15;;;5.60;99.90;;;;;;4964474;28;20354;-79
2023/01/14 02:20:04;;;;;;;9.40;1.50;;;5.70;99.90;;;;;;4949693;28;20031;-78
2023/01/14 02:22:55;;;;;;;5.00;1.13;;;5.50;99.90;;;;;;4965486;28;20062;-78
2023/01/14 02:25:40;;;;;;;3.70;1.20;;;5.40;99.90;;;;;;4963489;28;20436;-78
2023/01/14 02:28:34;;;;;;;4.45;1.05;;;5.20;99.90;;;;;;4964426;28;20035;-75
2023/01/14 02:31:29;;;;;;;5.78;1.17;;;5.20;99.90;;;;;;4949919;28;20362;-75
2023/01/14 02:34:03;;;;;;;4.70;1.80;;;5.00;99.90;;;;;;4944932;28;20046;-78
2023/01/14 02:36:33;;;;;;;4.65;1.25;;;;;;;;;;4947803;29;20128;-78
2023/01/14 02:39:24;;;;;;;2.22;1.65;;;4.80;99.90;;;;;;4948953;29;20028;-78
2023/01/14 02:44:38;;;;;;;3.00;1.35;;;4.60;99.90;;;;;;4948903;29;20555;-78
2023/01/14 02:47:18;;;;;;;1.35;0.98;;;4.40;99.90;;;;;;4948913;28;20035;-78
2023/01/14 02:49:48;;;;;;;3.33;1.92;;;4.20;99.90;;;;;;4948385;29;20126;-78
2023/01/14 02:52:14;;;;;;;2.80;0.77;;;;;;;;;;4949782;28;20074;-78
2023/01/14 02:54:40;;;;;;;5.55;2.00;;;;;;;;;;4950696;29;20326;-79
2023/01/14 02:57:06;;;;;;;10.63;4.07;;;;;;;;;;4949875;29;20936;-79
2023/01/14 02:59:32;;;;;;;10.75;1.73;;;;;;;;;;4949760;29;20038;-78
2023/01/14 03:02:22;;;;;;;2.70;1.40;;;3.30;99.90;;;;;;4950947;29;20019;-79
2023/01/14 03:04:59;;;;;;;6.80;0.70;;;3.20;99.90;;;;;;4948766;29;20102;-80
2023/01/14 03:07:30;;;;;;;1.80;0.95;;;3.20;99.90;;;;;;4954113;29;20038;-79
2023/01/14 03:10:42;;;;;;;2.92;0.80;;;3.10;99.90;;;;;;4953027;28;20029;-78
2023/01/14 03:13:30;;;;;;;7.72;0.93;;;3.00;99.90;;;;;;4951286;29;20068;-79
2023/01/14 03:15:56;;;;;;;5.43;2.20;;;;;;;;;;4949309;29;20078;-80
2023/01/14 03:18:41;;;;;;;5.65;1.13;;;2.80;99.90;;;;;;4949997;29;20027;-80
2023/01/14 03:21:20;;;;;;;5.00;1.13;;;2.80;99.90;;;;;;4951456;28;20449;-79
2023/01/14 03:23:50;;;;;;;10.82;2.10;;;;;;;;;;4951166;28;20050;-79
2023/01/14 03:26:16;;;;;;;2.42;1.10;;;;;;;;;;4951439;29;20079;-79
2023/01/14 03:28:49;;;;;;;2.80;1.13;;;2.70;99.90;;;;;;4952276;29;20053;-77
2023/01/14 03:31:22;;;;;;;1.48;1.23;;;2.70;99.90;;;;;;4951793;29;20424;-80
2023/01/14 03:33:55;;;;;;;7.38;0.82;;;2.80;99.90;;;;;;4954372;28;20027;-80
2023/01/14 03:36:24;;;;;;;5.03;1.25;;;2.70;99.90;;;;;;4954016;28;20153;-81
2023/01/14 03:38:57;;;;;;;6.28;2.00;;;2.60;99.90;;;;;;4954369;28;20062;-79
2023/01/14 03:44:16;;;;;;;3.72;1.17;;;2.60;99.90;;;;;;4955090;29;20102;-79
2023/01/14 03:46:42;;;;;;;1.75;0.93;;;;;;;;;;4950692;29;20408;-77
2023/01/14 03:49:08;;;;;;;3.03;0.63;;;;;;;;;;4951640;29;20041;-79
2023/01/14 03:51:47;;;;;;;7.63;1.20;;;2.50;99.90;;;;;;4954283;29;20031;-77
2023/01/14 03:54:26;;;;;;;3.50;0.73;;;2.50;99.90;;;;;;4952717;28;20016;-79
2023/01/14 03:57:10;;;;;;;1.90;0.63;;;2.50;99.90;;;;;;4952551;29;20027;-78
2023/01/14 03:59:54;;;;;;;1.70;1.08;;;2.50;99.90;;;;;;4953076;29;20038;-80
2023/01/14 04:02:21;;;;;;;1.25;1.25;;;;;;;;;;4953770;29;20054;-79
2023/01/14 04:04:48;;;;;;;1.10;0.50;;;2.50;99.90;;;;;;4955438;29;20068;-78
2023/01/14 04:07:14;;;;;;;5.78;0.90;;;;;;;;;;4952837;29;20028;-79
2023/01/14 04:09:40;;;;;;;5.10;0.93;;;;;;;;;;4953450;29;20066;-80
2023/01/14 04:12:06;;;;;;;8.13;1.58;;;;;;;;;;4952861;29;20381;-79
2023/01/14 04:17:17;;;;;;;6.28;0.88;;;;;;;;;;4953412;29;20120;-78
2023/01/14 04:19:43;;;;;;;5.07;1.75;;;;;;;;;;4968640;28;20145;-78
2023/01/14 04:22:09;;;;;;;1.27;0.60;;;;;;;;;;4969345;28;20043;-78
2023/01/14 04:24:35;;;;;;;3.33;1.23;;;;;;;;;;4954772;29;20027;-78
2023/01/14 04:27:01;;;;;;;3.75;2.05;;;;;;;;;;4951960;29;20499;-77
2023/01/14 04:29:27;;;;;;;1.90;1.10;;;;;;;;;;4966836;28;20114;-77
2023/01/14 04:31:53;;;;;;;4.63;1.23;;;;;;;;;;4968327;28;20146;-78
2023/01/14 04:34:20;;;;;;;1.73;0.85;;;2.70;99.90;;;;;;4954766;29;20047;-76
2023/01/14 04:36:46;;;;;;;0.98;0.40;;;;;;;;;;4954070;28;20385;-75
2023/01/14 04:39:12;;;;;;;3.88;0.88;;;;;;;;;;4955389;29;20030;-74
2023/01/14 04:44:23;;;;;;;5.07;0.88;;;;;;;;;;4956589;29;20078;-74
2023/01/14 04:46:49;;;;;;;1.17;1.08;;;;;;;;;;4954572;29;20035;-73
2023/01/14 04:49:15;;;;;;;2.83;0.82;;;;;;;;;;4951016;29;20435;-77
2023/01/14 04:51:41;;;;;;;4.38;1.33;;;;;;;;;;4965610;28;20129;-76
2023/01/14 04:54:07;;;;;;;0.75;0.50;;;;;;;;;;4966664;28;20037;-78
2023/01/14 04:56:33;;;;;;;13.48;1.73;;;;;;;;;;4965753;28;20039;-77
2023/01/14 04:59:01;;;;;;;5.80;1.70;;;;;;;;;;4950850;29;20522;-77
2023/01/14 05:01:28;;;;;;;3.25;1.77;;;;;;;;;;4965436;28;20031;-77
2023/01/14 05:03:58;;;;;;;1.85;1.58;;;;;;;;;;4951191;29;20024;-75
2023/01/14 05:06:24;;;;;;;4.32;1.90;;;;;;;;;;4952712;28;20494;-75
2023/01/14 05:08:50;;;;;;;10.10;1.52;;;;;;;;;;4968324;28;20027;-74
2023/01/14 05:11:16;;;;;;;3.72;1.20;;;;;;;;;;4954004;29;20074;-74
2023/01/14 05:13:42;;;;;;;0.68;0.68;;;;;;;;;;4952809;29;20047;-74
2023/01/14 05:16:09;;;;;;;2.53;0.82;;;;;;;;;;4953273;29;20024;-75
2023/01/14 05:18:35;;;;;;;2.65;0.70;;;;;;;;;;4954873;28;20019;-74
2023/01/14 05:21:01;;;;;;;4.20;1.65;;;;;;;;;;4953864;29;20027;-74
2023/01/14 05:23:27;;;;;;;1.77;0.45;;;;;;;;;;4954056;29;20054;-75
2023/01/14 05:25:53;;;;;;;2.78;0.70;;;;;;;;;;4953311;29;20121;-74
2023/01/14 05:28:20;;;;;;;2.25;2.05;;;;;;;;;;4966548;28;20162;-75
2023/01/14 05:30:46;;;;;;;2.13;1.17;;;;;;;;;;4966917;28;20027;-74
2023/01/14 05:33:12;;;;;;;2.72;0.95;;;;;;;;;;4952756;29;20585;-74
2023/01/14 05:35:39;;;;;;;0.80;0.80;;;;;;;;;;4950137;29;20407;-75
2023/01/14 05:38:05;;;;;;;4.75;0.88;;;;;;;;;;4950663;29;20477;-76
2023/01/14 05:40:31;;;;;;;4.50;0.95;;;;;;;;;;4966042;28;20083;-78
2023/01/14 05:45:51;;;;;;;4.05;1.25;;;;;;;;;;4952469;29;20051;-80
2023/01/14 05:48:19;;;;;;;1.70;1.38;;;;;;;;;;4952374;28;20023;-80
2023/01/14 05:50:45;;;;;;;0.98;0.60;;;;;;;;;;4953243;29;20042;-76
2023/01/14 05:53:11;;;;;;;6.30;0.80;;;;;;;;;;4956824;29;20023;-79
2023/01/14 05:55:38;;;;;;;1.77;0.75;;;;;;;;;;4952449;29;20035;-79
2023/01/14 05:58:05;;;;;;;5.78;1.27;;;3.00;99.90;;;;;;4969268;28;20027;-79
2023/01/14 06:08:32;;;;;;;11.02;0.95;;;;;;;;;;4950742;29;20027;-80
2023/01/14 06:10:59;;;;;;;4.60;0.85;;;;;;;;;;4951448;29;20495;-78
2023/01/14 06:13:25;;;;;;;0.95;0.90;;;;;;;;;;4966325;28;20432;-77
2023/01/14 06:15:52;;;;;;;6.78;0.80;;;;;;;;;;4952051;29;20102;-80
2023/01/14 06:18:23;;;;;;;1.20;0.70;;;;;;;;;;4952866;28;20102;-79
2023/01/14 06:20:53;;;;;;;3.55;0.50;;;3.00;99.90;;;;;;4951914;28;20020;-80
2023/01/14 06:23:21;;;;;;;1.08;0.82;;;2.80;99.90;;;;;;4951484;29;20038;-80
2023/01/14 06:25:48;;;;;;;2.03;0.68;;;;;;;;;;4952430;28;20039;-77
2023/01/14 06:28:14;;;;;;;1.77;0.77;;;;;;;;;;4952822;29;20613;-78
2023/01/14 06:30:41;;;;;;;3.60;0.63;;;;;;;;;;4951767;29;20042;-79
2023/01/14 06:33:07;;;;;;;2.80;0.55;;;;;;;;;;4966354;28;20027;-78
2023/01/14 06:35:34;;;;;;;0.38;0.38;;;;;;;;;;4952606;29;20047;-78
2023/01/14 06:38:00;;;;;;;0.45;0.45;;;;;;;;;;4953012;29;20034;-78
2023/01/14 06:40:26;;;;;;;0.95;0.95;;;;;;;;;;4953401;29;20030;-79
2023/01/14 06:42:55;;;;;;;5.47;1.15;;;2.70;99.90;;;;;;4968642;28;20404;-77
2023/01/14 06:45:23;;;;;;;0.55;0.50;;;;;;;;;;4969462;28;20439;-78
2023/01/14 06:47:49;;;;;;;5.50;1.23;;;;;;;;;;4954438;28;20090;-79
2023/01/14 06:50:17;;;;;;;3.88;1.67;;;;;;;;;;4953940;29;20031;-79
2023/01/14 06:52:43;;;;;;;1.90;1.20;;;;;;;;;;4953263;28;20023;-80
2023/01/14 06:55:09;;;;;;;3.55;1.00;;;;;;;;;;4953669;29;20476;-79
2023/01/14 06:57:35;;;;;;;2.35;1.58;;;;;;;;;;4953508;28;20036;-79
2023/01/14 07:00:01;;;;;;;3.55;1.50;;;;;;;;;;4970353;28;20027;-81
2023/01/14 07:02:27;;;;;;;6.38;2.80;;;;;;;;;;4957168;29;20035;-79
2023/01/14 07:04:53;;;;;;;7.60;4.30;;;;;;;;;;4957377;29;20032;-77
2023/01/14 07:07:19;;;;;;;20.13;3.80;;;;;;;;;;4957499;29;20035;-79
2023/01/14 07:09:45;;;;;;;8.48;2.97;;;;;;;;;;4957748;29;20047;-80
2023/01/14 07:12:11;;;;;;;10.45;2.70;;;;;;;;;;4957685;29;20027;-80
2023/01/14 07:14:37;;;;;;;3.30;1.92;;;;;;;;;;4972752;28;20107;-80
2023/01/14 07:17:03;;;;;;;5.05;3.00;;;;;;;;;;4956600;29;20439;-78
2023/01/14 07:19:29;;;;;;;11.65;2.58;;;;;;;;;;4972163;28;20140;-80
2023/01/14 07:21:55;;;;;;;4.95;1.15;;;;;;;;;;4957610;29;20034;-77
2023/01/14 07:24:21;;;;;;;6.97;1.17;;;;;;;;;;4956999;29;20031;-79
2023/01/14 07:26:47;;;;;;;4.45;2.15;;;;;;;;;;4956427;29;20035;-79
2023/01/14 07:29:14;;;;;;;4.10;1.45;;;;;;;;;;4956485;29;20034;-79
2023/01/14 07:31:40;;;;;;;7.68;2.20;;;;;;;;;;4957358;28;20508;-79
2023/01/14 07:34:07;;;;;;;8.57;2.10;;;;;;;;;;4956393;29;20065;-78
2023/01/14 07:36:32;;;;;;;2.60;2.03;;;;;;;;;;4957982;29;20042;-81
2023/01/14 07:38:59;;;;;;;6.57;1.50;;;;;;;;;;4958519;29;20031;-80
2023/01/14 07:41:25;;;;;;;2.85;1.48;;;;;;;;;;4971206;28;20026;-79
2023/01/14 07:43:51;;;;;;;4.20;1.75;;;;;;;;;;4970390;28;20031;-79
2023/01/14 07:46:17;;;;;;;6.72;1.92;;;;;;;;;;4970495;28;20035;-77
2023/01/14 07:48:44;;;;;;;5.40;1.35;;;;;;;;;;4973181;29;20058;-76
2023/01/14 07:51:10;;;;;;;5.63;1.00;;;;;;;;;;4972649;29;20031;-74
2023/01/14 07:53:36;;;;;;;2.40;1.42;;;;;;;;;;4978606;28;20019;-75
2023/01/14 07:56:08;;;;;;;1.23;1.05;;;;;;;;;;4971449;29;20039;-75
2023/01/14 07:58:34;;;;;;;9.57;1.23;;;;;;;;;;4968301;29;20460;-75
2023/01/14 08:01:06;;;;;;;2.67;1.58;;;3.40;99.90;;;;;;4976997;28;20038;-78
2023/01/14 08:03:32;;;;;;;4.00;1.25;;;;;;;;;;4973170;28;20031;-77
2023/01/14 08:06:04;;;;;;;1.88;1.48;;;3.40;99.90;;;;;;4977194;29;20023;-75
2023/01/14 08:08:30;;;;;;;6.82;1.05;;;;;;;;;;4974495;28;20051;-75
2023/01/14 08:11:00;;;;;;;3.28;0.95;;;3.60;99.90;;;;;;4974935;28;20038;-75
2023/01/14 08:13:27;;;;;;;2.88;1.20;;;;;;;;;;4983539;28;20038;-75
2023/01/14 08:15:57;;;;;;;2.38;0.98;;;;;;;;;;4980840;28;20030;-80
2023/01/14 08:18:23;;;;;;;5.93;1.05;;;;;;;;;;4981996;28;20030;-82
2023/01/14 08:20:56;;;;;;;2.38;1.60;;;3.60;99.90;;;;;;4976016;29;20118;-77
2023/01/14 08:23:22;;;;;;;1.10;1.00;;;;;;;;;;4983501;28;20035;-76
2023/01/14 08:25:48;;;;;;;4.93;1.52;;;;;;;;;;4997390;28;20513;-79
2023/01/14 08:28:14;;;;;;;3.55;1.25;;;;;;;;;;4992050;28;20086;-76
2023/01/14 08:30:40;;;;;;;0.93;0.90;;;;;;;;;;4984957;28;20113;-77
2023/01/14 08:33:07;;;;;;;7.68;3.15;;;3.70;99.90;;;;;;4989632;28;20019;-76
2023/01/14 08:35:33;;;;;;;1.67;1.23;;;;;;;;;;4979871;28;20055;-79
2023/01/14 08:37:59;;;;;;;4.47;1.17;;;;;;;;;;4971371;28;20109;-75
2023/01/14 08:40:25;;;;;;;1.65;1.23;;;;;;;;;;4968167;28;20027;-75
2023/01/14 08:42:51;;;;;;;1.05;0.85;;;;;;;;;;4969363;28;20074;-74
2023/01/14 08:45:17;;;;;;;1.90;1.10;;;;;;;;;;4963985;28;20043;-75
2023/01/14 08:47:43;;;;;;;3.95;1.33;;;;;;;;;;4962970;28;20019;-75
2023/01/14 08:50:10;;;;;;;2.38;0.63;;;;;;;;;;4964301;28;20038;-75
2023/01/14 08:52:36;;;;;;;1.45;0.85;;;;;;;;;;4975455;28;20029;-75
2023/01/14 08:55:03;;;;;;;2.05;1.58;;;5.30;99.90;;;;;;4979967;28;20007;-76
2023/01/14 08:57:29;;;;;;;5.47;0.80;;;;;;;;;;4991414;28;20035;-76
2023/01/14 08:59:55;;;;;;;7.07;1.40;;;;;;;;;;4981593;28;20020;-77
2023/01/14 09:02:24;;;;;;;2.00;0.98;;;;;;;;;;4984087;28;20019;-75
2023/01/14 09:04:50;;;;;;;1.67;1.13;;;;;;;;;;4985870;28;20030;-75
2023/01/14 09:18:19;;;;;;;4.18;1.85;;;;;;;;;;4977913;29;20042;-78
2023/01/14 09:20:45;;;;;;;3.17;1.73;;;;;;;;;;4975562;29;20031;-76
2023/01/14 09:23:11;;;;;;;2.58;1.30;;;;;;;;;;4974965;28;20076;-75
2023/01/14 09:25:37;;;;;;;1.23;1.13;;;;;;;;;;4994704;28;20066;-78
2023/01/14 09:28:13;;;;;;;1.48;1.20;;;;;;;;;;4994192;28;20062;-76
2023/01/14 09:30:39;;;;;;;1.08;1.02;;;;;;;;;;4974067;29;20166;-80
2023/01/14 09:33:06;;;;;;;3.17;1.55;;;;;;;;;;4969353;29;20028;-78
2023/01/14 09:35:35;;;;;;;3.10;1.83;;;;;;;;;;4965788;29;20039;-80
2023/01/14 09:38:01;;;;;;;4.10;2.40;;;;;;;;;;4962374;28;20057;-79
2023/01/14 09:41:20;;;;;;;1.95;1.60;;;7.60;99.90;;;;;;4960591;29;20564;-76
2023/01/14 09:43:46;;;;;;;2.38;1.67;;;;;;;;;;4964174;28;20043;-81
2023/01/14 09:46:12;;;;;;;8.27;2.78;;;;;;;;;;4973777;28;20047;-82
2023/01/14 09:48:38;;;;;;;2.00;1.55;;;;;;;;;;4975338;28;20023;-79
2023/01/14 09:51:42;;;;;;;1.58;1.40;;;8.40;99.90;;;;;;4970566;28;20042;-81
2023/01/14 09:54:30;;;;;;;6.38;1.40;;;8.50;99.90;;;;;;4971487;28;20023;-82
2023/01/14 09:57:19;;;;;;;1.63;1.52;;;8.70;99.90;;;;;;4971756;28;20057;-75
2023/01/14 10:00:21;;;;;;;5.13;1.83;;;8.90;99.90;;;;;;4962558;29;20114;-79
2023/01/14 10:03:36;;;;;;;1.52;1.17;;;8.90;99.90;;;;;;4963502;28;20058;-78
2023/01/14 10:06:16;;;;;;;1.65;1.42;;;9.00;99.90;;;;;;4939284;28;20057;-81
2023/01/14 10:08:53;;;;;;;3.03;1.17;;;8.90;99.90;;;;;;4960460;29;20043;-79
2023/01/14 10:11:21;;;;;;;5.57;1.70;;;;;;;;;;4956749;28;20033;-79
2023/01/14 10:13:57;;;;;;;7.05;1.10;;;9.10;99.90;;;;;;4961314;29;20027;-76
2023/01/14 10:16:27;;;;;;;1.45;1.05;;;;;;;;;;4971706;28;20184;-75
2023/01/14 10:19:21;;;;;;;2.50;1.38;;;9.40;99.90;;;;;;4975747;28;20087;-76
2023/01/14 10:21:59;;;;;;;2.85;1.27;;;;;;;;;;4970796;28;20035;-75
2023/01/14 10:24:25;;;;;;;1.20;1.15;;;;;;;;;;4973198;28;20066;-82
2023/01/14 10:26:52;;;;;;;0.70;0.70;;;;;;;;;;4964063;28;20374;-77
2023/01/14 10:29:21;;;;;;;1.00;0.88;;;9.10;99.90;;;;;;4975131;28;20527;-80
2023/01/14 10:31:57;;;;;;;3.15;1.02;;;9.00;99.90;;;;;;4957223;28;20019;-80
2023/01/14 10:34:38;;;;;;;2.58;1.02;;;8.80;99.90;;;;;;4959376;28;20027;-82
2023/01/14 10:37:06;;;;;;;1.33;1.00;;;;;;;;;;4980845;28;20038;-82
2023/01/14 10:39:35;;;;;;;4.47;2.20;;;;;;;;;;4969164;29;20023;-83
2023/01/14 10:42:01;;;;;;;6.18;1.27;;;;;;;;;;4958453;29;20503;-81
2023/01/14 10:44:34;;;;;;;2.08;1.02;;;9.30;99.90;;;;;;4953916;29;20047;-81
2023/01/14 10:47:18;;;;;;;0.98;0.85;;;;;;;;;;4953456;29;20122;-80
2023/01/14 10:49:58;;;;;;;2.22;1.02;;;;;;;;;;4950926;29;20027;-82
2023/01/14 10:52:26;;;;;;;2.65;1.95;;;;;;;;;;4948060;29;20031;-79
2023/01/14 10:55:28;;;;;;;2.38;1.10;;;9.40;99.90;;;;;;4954131;29;20049;-81
2023/01/14 10:57:59;;;;;;;1.70;0.90;;;;;;;;;;4946745;29;20027;-81
2023/01/14 11:00:47;;;;;;;5.07;1.10;;;9.90;99.90;;;;;;4961857;29;20019;-83
2023/01/14 11:03:16;;;;;;;1.15;0.85;;;;;;;;;;4959299;29;20035;-80
2023/01/14 11:05:42;;;;;;;5.03;1.17;;;;;;;;;;4957276;29;20265;-80
2023/01/14 11:08:29;;;;;;;5.75;1.73;;;10.00;99.90;;;;;;4961920;29;20031;-81
2023/01/14 11:11:00;;;;;;;2.78;1.75;;;;;;;;;;4955409;29;20114;-82
2023/01/14 11:13:26;;;;;;;4.82;1.27;;;;;;;;;;4973181;28;20087;-80
2023/01/14 11:15:52;;;;;;;1.23;1.13;;;;;;;;;;4957083;29;20054;-81
2023/01/14 11:18:18;;;;;;;2.42;1.15;;;;;;;;;;4960573;29;20019;-80
2023/01/14 11:21:33;;;;;;;1.45;0.95;;;10.30;99.90;;;;;;4965479;28;20047;-77
2023/01/14 11:24:41;;;;;;;1.75;0.50;;;9.90;99.90;;;;;;4951641;29;20084;-77
2023/01/14 11:27:24;;;;;;;2.97;1.00;;;10.30;99.90;;;;;;4977097;28;20039;-77
2023/01/14 11:29:58;;;;;;;4.97;1.35;;;10.60;99.90;;;;;;4971987;28;20464;-76
2023/01/14 11:32:27;;;;;;;0.43;0.38;;;10.60;99.90;;;;;;4974340;28;20030;-76
2023/01/14 11:34:53;;;;;;;3.03;0.93;;;;;;;;;;4972163;28;20043;-76
2023/01/14 11:37:25;;;;;;;0.75;0.75;;;10.80;99.90;;;;;;4970617;29;20101;-77
2023/01/14 11:40:17;;;;;;;0.52;0.52;;;;;;;;;;4969131;28;20030;-76
2023/01/14 11:42:46;;;;;;;3.00;1.15;;;;;;;;;;4967464;28;20043;-77
2023/01/14 11:45:31;;;;;;;0.98;0.75;;;11.10;99.90;;;;;;4956649;28;20381;-76
2023/01/14 11:47:57;;;;;;;3.17;0.77;;;;;;;;;;4963528;29;20055;-76
2023/01/14 11:50:32;;;;;;;6.15;0.98;;;11.30;99.90;;;;;;4971215;29;20041;-77
2023/01/14 11:53:01;;;;;;;3.25;1.20;;;;;;;;;;4985113;28;20037;-77
2023/01/14 11:55:32;;;;;;;6.00;0.68;;;;;;;;;;4963111;29;20031;-76
2023/01/14 11:58:19;;;;;;;1.17;0.55;;;11.30;99.90;;;;;;4962383;29;20065;-76
2023/01/14 12:00:51;;;;;;;0.85;0.85;;;11.40;99.90;;;;;;4960779;28;20473;-77
2023/01/14 12:03:47;;;;;;;1.35;0.73;;;11.40;99.90;;;;;;4961255;29;20380;-76
2023/01/14 12:06:18;;;;;;;1.75;0.60;;;11.60;99.90;;;;;;4975003;28;20047;-76
2023/01/14 12:08:46;;;;;;;1.70;0.63;;;;;;;;;;4967473;28;20034;-76
2023/01/14 12:11:23;;;;;;;0.60;0.50;;;11.70;99.90;;;;;;4972485;29;20028;-78
2023/01/14 12:16:55;;;;;;;1.52;0.85;;;11.70;99.90;;;;;;4975049;29;20030;-76
2023/01/14 12:19:30;;;;;;;1.55;0.43;;;11.70;99.90;;;;;;4986291;28;20450;-76
2023/01/14 12:22:24;;;;;;;2.47;0.55;;;11.70;99.90;;;;;;4982636;28;20051;-76
2023/01/14 12:24:55;;;;;;;0.45;0.40;;;11.70;99.90;;;;;;4968483;28;20035;-76
2023/01/14 12:27:45;;;;;;;5.32;0.82;;;12.10;99.90;;;;;;4969537;28;20047;-78
2023/01/14 12:30:23;;;;;;;1.00;0.88;;;;;;;;;;4970525;28;20467;-76
2023/01/14 12:32:58;;;;;;;2.58;0.85;;;11.80;99.90;;;;;;4965900;29;20031;-77
2023/01/14 12:35:27;;;;;;;1.05;0.43;;;11.80;99.90;;;;;;4968437;28;20051;-76
2023/01/14 12:45:41;;;;;;;2.10;0.55;;;;;;;;;;4984530;28;20558;-76
2023/01/14 12:46:25;;;;;;;0.40;0.40;;;;;;;;;;4966510;29;20041;-77
2023/01/14 12:48:51;;;;;;;0.77;0.30;;;;;;;;;;4967099;28;20019;-77
2023/01/14 12:51:21;;;;;;;1.05;0.60;;;10.90;99.90;;;;;;4966741;29;20070;-77
2023/01/14 12:53:55;;;;;;;0.43;0.35;;;10.70;99.90;;;;;;4981029;28;20031;-77
2023/01/14 12:56:29;;;;;;;0.88;0.75;;;10.50;99.90;;;;;;4965065;28;20055;-76
2023/01/14 12:58:57;;;;;;;4.22;0.50;;;;;;;;;;4964384;28;20023;-76
2023/01/14 13:01:28;;;;;;;0.60;0.60;;;10.10;99.90;;;;;;4963483;29;20122;-77
2023/01/14 13:04:01;;;;;;;3.25;1.00;;;10.10;99.90;;;;;;4966988;28;20032;-77
2023/01/14 13:06:30;;;;;;;2.85;1.30;;;;;;;;;;4968688;28;20027;-77
2023/01/14 13:08:57;;;;;;;1.65;1.27;;;;;;;;;;4973009;29;20019;-77
2023/01/14 13:11:43;;;;;;;4.68;1.45;;;10.40;99.90;;;;;;4967529;28;20042;-77
2023/01/14 13:14:34;;;;;;;2.75;1.00;;;10.60;99.90;;;;;;4967667;28;20137;-77
2023/01/14 13:17:01;;;;;;;2.28;1.40;;;;;;;;;;4966448;29;20094;-77
2023/01/14 13:19:27;;;;;;;2.10;0.60;;;;;;;;;;4966374;29;20027;-77
2023/01/14 13:21:56;;;;;;;1.67;0.90;;;;;;;;;;4969641;29;20030;-77
2023/01/14 13:24:37;;;;;;;2.42;0.73;;;11.40;99.90;;;;;;4968438;28;20015;-77
2023/01/14 13:27:39;;;;;;;2.00;1.30;;;11.50;99.90;;;;;;4961284;28;20028;-77
2023/01/14 13:30:17;;;;;;;1.35;1.33;;;;;;;;;;4987162;28;20023;-77
2023/01/14 13:33:02;;;;;;;2.45;1.10;;;11.80;99.90;;;;;;4976431;29;20030;-77
2023/01/14 13:35:30;;;;;;;2.08;1.25;;;11.80;99.90;;;;;;4974913;29;20054;-77
2023/01/14 13:37:57;;;;;;;1.92;0.60;;;;;;;;;;4975912;28;20031;-76
2023/01/14 13:40:28;;;;;;;2.63;1.08;;;12.10;99.90;;;;;;4977760;29;20027;-77
2023/01/14 13:42:59;;;;;;;2.33;0.60;;;12.50;99.90;;;;;;4976995;28;20007;-77
2023/01/14 13:45:29;;;;;;;1.33;1.05;;;;;;;;;;4974292;29;20042;-76
2023/01/14 13:47:58;;;;;;;1.70;0.77;;;12.70;99.90;;;;;;4974782;29;20404;-78
2023/01/14 13:50:33;;;;;;;5.72;1.08;;;12.50;99.90;;;;;;4978447;29;20011;-77
2023/01/14 13:53:05;;;;;;;9.00;0.95;;;12.30;99.90;;;;;;4995993;28;20022;-78
2023/01/14 13:55:33;;;;;;;2.75;1.30;;;11.90;99.90;;;;;;4978974;28;20024;-78
2023/01/14 13:58:14;;;;;;;1.10;0.88;;;11.60;99.90;;;;;;4976023;28;20032;-77
2023/01/14 14:00:44;;;;;;;1.92;0.80;;;;;;;;;;4975206;28;20023;-77
2023/01/14 14:03:37;;;;;;;0.93;0.60;;;11.40;99.90;;;;;;4979137;28;20026;-77
2023/01/14 14:06:21;;;;;;;2.72;1.02;;;11.20;99.90;;;;;;4975360;29;20406;-77
2023/01/14 14:08:59;;;;;;;2.58;0.88;;;11.20;99.90;;;;;;4989309;28;20087;-78
2023/01/14 14:11:28;;;;;;;2.83;1.30;;;11.10;99.90;;;;;;4976576;28;20042;-77
2023/01/14 14:14:04;;;;;;;1.15;1.05;;;10.80;99.90;;;;;;4975267;28;20027;-77
2023/01/14 14:16:36;;;;;;;0.70;0.70;;;10.60;99.90;;;;;;4973880;29;20047;-77
2023/01/14 14:19:17;;;;;;;1.95;0.95;;;10.60;99.90;;;;;;4987465;28;20019;-77
2023/01/14 14:21:43;;;;;;;2.58;0.95;;;;;;;;;;4973730;29;20023;-77
2023/01/14 14:24:31;;;;;;;3.22;0.90;;;10.50;99.90;;;;;;4971749;29;20078;-77
2023/01/14 14:27:00;;;;;;;1.67;1.02;;;10.50;99.90;;;;;;4971698;28;20090;-78
2023/01/14 14:29:33;;;;;;;0.73;0.70;;;;;;;;;;4970652;28;20047;-79
2023/01/14 14:32:26;;;;;;;1.20;0.70;;;10.40;99.90;;;;;;4971567;28;20047;-81
2023/01/14 14:35:16;;;;;;;2.13;0.85;;;10.30;99.90;;;;;;4968245;29;20437;-76
2023/01/14 14:37:54;;;;;;;1.88;1.15;;;10.10;99.90;;;;;;4987444;28;20039;-77
2023/01/14 14:40:27;;;;;;;5.43;1.13;;;10.10;99.90;;;;;;4965955;28;20082;-77
2023/01/14 14:42:55;;;;;;;0.75;0.75;;;;;;;;;;4966818;28;20023;-78
2023/01/14 14:45:40;;;;;;;3.28;0.95;;;10.00;99.90;;;;;;4965029;29;20066;-77
2023/01/14 14:48:31;;;;;;;3.95;1.02;;;9.90;99.90;;;;;;4964738;28;20023;-76
2023/01/14 14:50:57;;;;;;;1.17;1.08;;;;;;;;;;4977529;28;20055;-76
2023/01/14 14:53:34;;;;;;;4.05;1.95;;;9.90;99.90;;;;;;4962382;29;20027;-77
2023/01/14 14:56:05;;;;;;;0.82;0.80;;;9.70;99.90;;;;;;4963784;28;20023;-77
2023/01/14 14:58:32;;;;;;;2.42;0.95;;;;;;;;;;4966166;28;20024;-78
2023/01/14 15:01:02;;;;;;;0.73;0.73;;;9.60;99.90;;;;;;4965706;29;20030;-77
2023/01/14 15:03:31;;;;;;;2.53;1.58;;;9.60;99.90;;;;;;4964989;28;20465;-77
2023/01/14 15:06:12;;;;;;;1.00;0.90;;;9.60;99.90;;;;;;4964819;29;20118;-77